Terminal Aerodrome Forecast
Issued by NWS

Home | Current Version | Previous Version | Text Only | Print | Product List | Glossary On
Versions: 1 2 3 4 5 6 7 8 9 10 11 12 13 14 15 16 17 18 19
000
FTUS42 KMHX 232200 AAA
TAFISO
TAF AMD
KISO 232215Z 2322/2418 36008KT P6SM VCSH SCT008 BKN015
     FM240400 02008KT 5SM -RA BKN025 OVC040
     FM241000 03009KT 4SM -RA BR OVC012
      AMD LTD TO CLD VIS AND WIND=

USA.gov is the U.S. government's official web portal to all federal, state and local government web resources and services.